Time;durP1;ratioP1;P1;durP2;ratioP2;P2;SDS_P1;SDS_P2;PMS_P1;PMS_P2;Temp;Humidity;BMP_temperature;BMP_pressure;BME280_temperature;BME280_humidity;BME280_pressure;Samples;Min_cycle;Max_cycle;Signal;HPM_P1;HPM_P2
2021/12/22 00:00:23;;;;;;;60.73;26.93;;;;;;;-1.83;100.00;99602.00;2224427;80;21005;-88
2021/12/22 00:03:26;;;;;;;52.38;24.72;;;;;;;-1.79;100.00;99600.91;2224028;80;21027;-92
2021/12/22 00:06:29;;;;;;;46.77;21.65;;;;;;;-1.76;100.00;99601.20;2224219;80;21481;-87
2021/12/22 00:09:29;;;;;;;52.05;25.27;;;;;;;-1.74;100.00;99601.94;2224795;80;21018;-87
2021/12/22 00:12:30;;;;;;;45.92;23.10;;;;;;;-1.80;100.00;99604.39;2264329;78;21111;-88
2021/12/22 00:15:31;;;;;;;48.55;25.45;;;;;;;-1.79;100.00;99598.34;2266071;78;21029;-88
2021/12/22 00:18:32;;;;;;;50.48;24.92;;;;;;;-1.78;100.00;99596.61;2255196;78;20976;-87
2021/12/22 00:21:36;;;;;;;43.92;23.30;;;;;;;-1.78;100.00;99608.16;2226508;78;20985;-87
2021/12/22 00:24:35;;;;;;;44.50;22.50;;;;;;;-1.74;100.00;99608.36;2223530;78;21051;-86
2021/12/22 00:27:36;;;;;;;45.17;24.00;;;;;;;-1.73;100.00;99604.91;2225895;79;20945;-86
2021/12/22 00:30:38;;;;;;;50.75;23.77;;;;;;;-1.68;100.00;99604.66;2223784;80;21040;-87
2021/12/22 00:33:46;;;;;;;52.33;25.12;;;;;;;-1.64;100.00;99596.72;2223946;80;21037;-87
2021/12/22 00:36:41;;;;;;;48.38;22.87;;;;;;;-1.58;100.00;99596.84;2222908;80;21054;-85
2021/12/22 00:39:43;;;;;;;40.67;21.73;;;;;;;-1.49;100.00;99604.87;2250390;78;21001;-86
2021/12/22 00:42:44;;;;;;;40.50;21.10;;;;;;;-1.42;100.00;99610.98;2266184;78;21070;-85
2021/12/22 00:45:47;;;;;;;48.02;24.30;;;;;;;-1.40;100.00;99609.98;2266170;78;20965;-86
2021/12/22 00:48:47;;;;;;;36.03;20.15;;;;;;;-1.35;100.00;99617.45;2248543;78;21573;-86
2021/12/22 00:51:48;;;;;;;44.38;21.00;;;;;;;-1.40;100.00;99618.14;2226002;79;20957;-86
2021/12/22 00:54:49;;;;;;;34.27;18.35;;;;;;;-1.49;100.00;99616.89;2226142;80;21050;-86
2021/12/22 00:57:50;;;;;;;35.85;18.85;;;;;;;-1.52;100.00;99613.22;2225788;80;21009;-87
2021/12/22 01:00:53;;;;;;;39.70;20.62;;;;;;;-1.56;100.00;99618.13;2224176;80;22142;-86
2021/12/22 01:03:53;;;;;;;40.05;18.73;;;;;;;-1.53;100.00;99619.27;2262051;78;21497;-86
2021/12/22 01:06:54;;;;;;;36.30;19.80;;;;;;;-1.62;100.00;99623.15;2226431;80;20980;-86
2021/12/22 01:09:55;;;;;;;36.08;19.73;;;;;;;-1.62;100.00;99623.15;2262224;77;21589;-86
2021/12/22 01:12:56;;;;;;;39.80;20.17;;;;;;;-1.69;100.00;99619.69;2292001;77;20975;-86
2021/12/22 01:15:57;;;;;;;33.40;17.17;;;;;;;-1.75;100.00;99624.68;2258470;78;20966;-86
2021/12/22 01:19:02;;;;;;;39.15;19.50;;;;;;;-1.77;100.00;99622.66;2263284;78;20947;-86
2021/12/22 01:22:09;;;;;;;30.60;16.62;;;;;;;-1.76;100.00;99622.57;2261565;78;20990;-86
2021/12/22 01:25:03;;;;;;;32.98;17.67;;;;;;;-1.83;100.00;99626.39;2260414;79;21027;-87
2021/12/22 01:28:04;;;;;;;32.33;16.20;;;;;;;-1.84;100.00;99624.70;2262996;77;21018;-86
2021/12/22 01:31:06;;;;;;;26.02;15.68;;;;;;;-1.85;100.00;99619.65;2234393;79;21005;-86
2021/12/22 01:34:07;;;;;;;40.03;17.32;;;;;;;-1.87;100.00;99616.34;2264086;78;21081;-87
2021/12/22 01:37:08;;;;;;;30.82;17.73;;;;;;;-1.93;100.00;99624.34;2264192;78;21443;-86
2021/12/22 01:40:09;;;;;;;33.42;16.93;;;;;;;-1.93;100.00;99625.17;2262564;77;21439;-86
2021/12/22 01:43:09;;;;;;;32.23;15.60;;;;;;;-1.93;100.00;99629.02;2260009;78;21521;-85
2021/12/22 01:49:16;;;;;;;31.07;14.65;;;;;;;-2.03;100.00;99629.95;2164704;82;21141;-87
2021/12/22 01:52:17;;;;;;;27.75;16.27;;;;;;;-2.06;100.00;99626.27;2165635;81;21593;-89
2021/12/22 01:55:24;;;;;;;31.80;17.20;;;;;;;-2.06;100.00;99624.98;2140656;82;21095;-88
2021/12/22 01:58:20;;;;;;;30.37;15.18;;;;;;;-2.07;100.00;99627.63;2164463;82;20981;-88
2021/12/22 02:01:21;;;;;;;31.37;15.30;;;;;;;-2.15;100.00;99631.86;2164408;82;20999;-88
2021/12/22 02:04:22;;;;;;;29.98;16.32;;;;;;;-2.17;100.00;99635.42;2165630;82;21113;-88
2021/12/22 02:07:23;;;;;;;25.75;14.87;;;;;;;-2.20;100.00;99640.69;2165505;82;20987;-88
2021/12/22 02:10:35;;;;;;;29.95;16.10;;;;;;;-2.18;100.00;99642.75;2163399;82;21097;-88
2021/12/22 02:13:31;;;;;;;31.33;16.87;;;;;;;-2.23;100.00;99647.27;2161353;82;21083;-85
2021/12/22 02:16:30;;;;;;;34.08;17.77;;;;;;;-2.21;100.00;99636.46;2162823;81;21552;-86
2021/12/22 02:19:31;;;;;;;31.93;16.95;;;;;;;-2.19;100.00;99635.50;2163442;82;21571;-86
2021/12/22 02:22:35;;;;;;;30.23;16.45;;;;;;;-2.16;100.00;99634.52;2163343;82;21020;-86
2021/12/22 02:25:43;;;;;;;32.15;18.75;;;;;;;-2.10;100.00;99629.91;2188201;79;21561;-85
2021/12/22 02:28:43;;;;;;;35.65;18.20;;;;;;;-2.07;100.00;99639.18;2259272;78;21569;-85
2021/12/22 02:35:11;;;;;;;32.13;19.07;;;;;;;-2.08;100.00;99648.62;2149936;80;21148;-87
2021/12/22 02:38:17;;;;;;;37.88;19.40;;;;;;;-2.08;100.00;99649.07;2146338;82;21001;-87
2021/12/22 02:41:17;;;;;;;41.75;18.92;;;;;;;-2.10;100.00;99646.59;2146196;82;21037;-87
2021/12/22 02:44:18;;;;;;;33.53;18.65;;;;;;;-2.12;100.00;99650.12;2146370;82;21065;-87
2021/12/22 02:47:19;;;;;;;39.45;19.90;;;;;;;-2.13;100.00;99648.00;2146409;83;21049;-84
2021/12/22 02:50:20;;;;;;;41.10;20.40;;;;;;;-2.16;100.00;99650.73;2146472;82;20962;-86
2021/12/22 02:53:25;;;;;;;33.95;18.82;;;;;;;-2.16;100.00;99650.73;2146271;83;21116;-86
2021/12/22 02:59:44;;;;;;;32.20;17.60;;;;;;;-2.18;100.00;99651.73;2146250;82;21046;-88
2021/12/22 03:02:42;;;;;;;33.02;18.45;;;;;;;-2.13;100.00;99651.86;2143919;83;21552;-86
2021/12/22 03:05:36;;;;;;;33.70;18.42;;;;;;;-2.12;100.00;99653.97;2144813;83;21510;-85
2021/12/22 03:08:37;;;;;;;38.38;19.40;;;;;;;-2.15;100.00;99654.95;2146106;83;20988;-85
2021/12/22 03:11:38;;;;;;;36.98;19.20;;;;;;;-2.17;100.00;99646.52;2146936;82;21033;-85
2021/12/22 03:14:39;;;;;;;38.08;19.55;;;;;;;-2.20;100.00;99647.10;2147756;82;20962;-83
2021/12/22 03:17:40;;;;;;;37.93;20.27;;;;;;;-2.24;100.00;99650.73;2146465;82;21088;-89
2021/12/22 03:20:44;;;;;;;40.25;20.82;;;;;;;-2.26;100.00;99650.81;2146153;82;21013;-89
2021/12/22 03:23:43;;;;;;;28.85;16.48;;;;;;;-2.31;100.00;99654.05;2146410;83;21028;-86
2021/12/22 03:26:44;;;;;;;33.48;17.32;;;;;;;-2.33;100.00;99654.13;2146804;82;20970;-88
2021/12/22 03:29:45;;;;;;;33.40;19.32;;;;;;;-2.35;100.00;99655.12;2145993;83;21531;-88
2021/12/22 03:32:46;;;;;;;36.53;18.82;;;;;;;-2.36;100.00;99656.03;2146311;82;21065;-88
2021/12/22 03:35:46;;;;;;;37.28;19.67;;;;;;;-2.47;100.00;99655.70;2142278;83;21001;-88
2021/12/22 03:38:48;;;;;;;34.67;18.73;;;;;;;-2.60;100.00;99658.86;2142206;83;21072;-88
2021/12/22 03:41:49;;;;;;;33.83;19.57;;;;;;;-2.71;100.00;99666.70;2142252;83;21532;-88
2021/12/22 03:44:50;;;;;;;35.70;20.32;;;;;;;-2.83;100.00;99671.11;2142128;83;21018;-87
2021/12/22 03:47:50;;;;;;;37.15;22.65;;;;;;;-2.97;100.00;99673.05;2142241;82;21288;-88
2021/12/22 03:50:51;;;;;;;39.58;22.22;;;;;;;-3.04;100.00;99667.36;2141723;83;21061;-87
2021/12/22 03:53:52;;;;;;;34.73;19.98;;;;;;;-3.16;100.00;99673.06;2142129;83;21469;-87
2021/12/22 03:56:54;;;;;;;44.73;22.58;;;;;;;-3.24;100.00;99673.86;2141900;83;21041;-88
2021/12/22 03:59:58;;;;;;;44.55;25.25;;;;;;;-3.36;100.00;99676.53;2142075;83;21576;-86
2021/12/22 04:02:58;;;;;;;47.35;24.60;;;;;;;-3.46;100.00;99674.00;2141992;83;21059;-88
2021/12/22 04:05:59;;;;;;;48.80;24.98;;;;;;;-3.59;100.00;99672.41;2142229;83;21539;-87
2021/12/22 04:08:59;;;;;;;55.83;27.95;;;;;;;-3.64;100.00;99675.63;2142042;83;20950;-87
2021/12/22 04:12:00;;;;;;;57.78;26.82;;;;;;;-3.67;100.00;99682.59;2142180;83;21053;-87
2021/12/22 04:15:01;;;;;;;64.50;31.35;;;;;;;-3.70;100.00;99683.57;2141985;83;21066;-87
2021/12/22 04:18:02;;;;;;;72.58;32.53;;;;;;;-3.78;100.00;99685.17;2142249;83;21460;-88
2021/12/22 04:21:03;;;;;;;59.67;28.85;;;;;;;-3.81;100.00;99688.33;2142131;83;21001;-87
2021/12/22 04:24:06;;;;;;;68.42;26.95;;;;;;;-3.94;100.00;99688.45;2142261;83;21017;-87
2021/12/22 04:27:06;;;;;;;55.33;26.62;;;;;;;-4.09;100.00;99695.05;2142423;83;21009;-87
2021/12/22 04:30:07;;;;;;;50.78;22.55;;;;;;;-4.23;100.00;99693.05;2142004;83;21041;-87
2021/12/22 04:33:08;;;;;;;53.83;26.00;;;;;;;-4.24;100.00;99695.23;2142201;83;21069;-88
2021/12/22 04:36:09;;;;;;;47.73;26.10;;;;;;;-4.32;100.00;99696.81;2143592;83;20966;-88
2021/12/22 04:39:09;;;;;;;44.58;25.32;;;;;;;-4.35;100.00;99693.56;2142335;83;21017;-87
2021/12/22 04:42:10;;;;;;;57.60;27.70;;;;;;;-4.39;100.00;99685.61;2142714;83;20982;-88
2021/12/22 04:45:11;;;;;;;53.40;28.30;;;;;;;-4.44;100.00;99697.77;2143113;83;21130;-86
2021/12/22 04:48:12;;;;;;;72.67;32.58;;;;;;;-4.46;100.00;99697.83;2142243;83;20966;-88
2021/12/22 04:51:22;;;;;;;47.00;25.20;;;;;;;-4.47;100.00;99700.00;2142106;83;21041;-87
2021/12/22 04:54:31;;;;;;;43.15;24.20;;;;;;;-4.56;100.00;99699.09;2140004;83;21052;-86
2021/12/22 04:57:21;;;;;;;38.20;23.22;;;;;;;-4.53;100.00;99701.52;2139502;83;21108;-87
2021/12/22 05:00:22;;;;;;;47.30;22.52;;;;;;;-4.53;100.00;99707.91;2142248;83;21002;-84
2021/12/22 05:03:23;;;;;;;38.75;21.75;;;;;;;-4.55;100.00;99712.25;2143886;83;21032;-85
2021/12/22 05:06:24;;;;;;;92.62;46.37;;;;;;;-4.58;100.00;99703.41;2143761;83;21505;-85
2021/12/22 05:09:25;;;;;;;259.35;111.40;;;;;;;-4.66;100.00;99706.30;2142081;83;21072;-85
2021/12/22 05:12:25;;;;;;;312.38;127.92;;;;;;;-4.70;100.00;99703.90;2141929;83;20970;-85
2021/12/22 05:15:35;;;;;;;166.92;63.40;;;;;;;-4.75;100.00;99705.82;2142372;83;21033;-86
2021/12/22 05:18:51;;;;;;;178.47;60.55;;;;;;;-4.78;100.00;99704.64;2140874;83;21033;-85
2021/12/22 05:21:50;;;;;;;102.45;42.15;;;;;;;-4.84;100.00;99701.89;2141716;82;21031;-84
2021/12/22 05:24:50;;;;;;;293.33;130.55;;;;;;;-4.88;100.00;99708.83;2141913;83;21247;-84
2021/12/22 05:27:51;;;;;;;410.35;185.00;;;;;;;-4.90;100.00;99709.78;2142084;83;21532;-83
2021/12/22 05:30:52;;;;;;;256.43;99.52;;;;;;;-4.90;100.00;99708.50;2142329;83;21046;-84
2021/12/22 05:33:53;;;;;;;198.45;75.40;;;;;;;-4.91;100.00;99712.78;2142954;83;21062;-83
2021/12/22 05:36:55;;;;;;;97.30;38.28;;;;;;;-4.92;100.00;99715.40;2146183;82;20994;-84
2021/12/22 05:39:56;;;;;;;95.03;33.53;;;;;;;-4.93;100.00;99720.13;2145602;83;21008;-84
2021/12/22 05:42:57;;;;;;;131.43;59.85;;;;;;;-4.96;100.00;99722.78;2145523;83;21088;-83
2021/12/22 05:45:58;;;;;;;77.72;37.28;;;;;;;-5.04;100.00;99714.56;2145649;83;20958;-87
2021/12/22 05:48:59;;;;;;;56.55;24.65;;;;;;;-5.09;100.00;99720.30;2145500;83;21593;-87
2021/12/22 05:52:00;;;;;;;68.57;27.60;;;;;;;-5.14;100.00;99724.29;2145804;83;20971;-84
2021/12/22 05:55:01;;;;;;;57.53;26.25;;;;;;;-5.19;100.00;99732.14;2145535;83;21032;-85
2021/12/22 05:58:02;;;;;;;49.38;24.70;;;;;;;-5.21;100.00;99730.09;2145702;83;20973;-85
2021/12/22 06:01:03;;;;;;;48.95;23.80;;;;;;;-5.27;100.00;99731.58;2145523;82;21567;-81
2021/12/22 06:04:04;;;;;;;50.00;24.37;;;;;;;-5.27;100.00;99740.96;2145622;82;20965;-83
2021/12/22 06:07:04;;;;;;;51.60;23.77;;;;;;;-5.28;100.00;99743.13;2147104;83;21574;-84
2021/12/22 06:10:05;;;;;;;41.92;23.92;;;;;;;-5.31;100.00;99747.88;2146013;82;20966;-85
2021/12/22 06:13:06;;;;;;;45.23;22.73;;;;;;;-5.36;100.00;99748.50;2145601;83;22156;-83
2021/12/22 06:16:07;;;;;;;46.88;21.80;;;;;;;-5.36;100.00;99760.44;2146313;83;21005;-88
2021/12/22 06:19:09;;;;;;;41.58;22.73;;;;;;;-5.40;100.00;99758.86;2146005;82;20958;-87
2021/12/22 06:22:10;;;;;;;48.75;22.62;;;;;;;-5.37;100.00;99766.44;2145664;83;20981;-87
2021/12/22 06:25:11;;;;;;;45.73;22.45;;;;;;;-5.38;100.00;99771.16;2145977;82;21105;-82
2021/12/22 06:28:12;;;;;;;44.18;23.25;;;;;;;-5.36;100.00;99782.14;2145826;83;21032;-82
2021/12/22 06:31:13;;;;;;;40.70;22.98;;;;;;;-5.37;100.00;99785.14;2145438;83;21021;-87
2021/12/22 06:34:14;;;;;;;43.90;21.68;;;;;;;-5.40;100.00;99781.39;2146042;83;21957;-88
2021/12/22 06:37:15;;;;;;;48.60;25.50;;;;;;;-5.42;100.00;99788.28;2146392;83;21017;-82
2021/12/22 06:40:16;;;;;;;43.63;22.75;;;;;;;-5.44;100.00;99793.44;2148092;82;20962;-84
2021/12/22 06:43:17;;;;;;;45.28;23.87;;;;;;;-5.51;100.00;99800.08;2147889;83;21061;-82
2021/12/22 06:46:18;;;;;;;51.18;26.70;;;;;;;-5.56;100.00;99800.70;2148633;83;20970;-88
2021/12/22 06:49:18;;;;;;;54.03;27.65;;;;;;;-5.60;100.00;99802.95;2148149;82;20985;-91
2021/12/22 06:52:19;;;;;;;82.15;41.45;;;;;;;-5.57;100.00;99803.70;2148715;82;20985;-90
2021/12/22 06:55:20;;;;;;;70.45;32.48;;;;;;;-5.54;100.00;99813.79;2149815;81;21025;-89
2021/12/22 06:58:21;;;;;;;94.62;39.67;;;;;;;-5.54;100.00;99813.79;2149968;79;21065;-87
2021/12/22 07:01:22;;;;;;;96.95;43.13;;;;;;;-5.56;100.00;99816.84;2149105;80;20965;-90
2021/12/22 07:04:24;;;;;;;112.03;52.73;;;;;;;-5.58;100.00;99821.14;2146659;82;21016;-86
2021/12/22 07:07:25;;;;;;;91.25;41.55;;;;;;;-5.61;100.00;99831.91;2146340;82;21007;-87
2021/12/22 07:10:26;;;;;;;76.77;36.93;;;;;;;-5.61;100.00;99826.36;2145547;83;21457;-85
2021/12/22 07:13:26;;;;;;;65.08;31.90;;;;;;;-5.64;100.00;99829.02;2145532;82;21068;-86
2021/12/22 07:16:27;;;;;;;59.30;31.82;;;;;;;-5.65;100.00;99830.36;2145920;83;21084;-87
2021/12/22 07:19:28;;;;;;;52.90;29.48;;;;;;;-5.65;100.00;99839.28;2145739;82;20962;-84
2021/12/22 07:22:29;;;;;;;58.75;30.25;;;;;;;-5.56;100.00;99831.33;2146183;82;21005;-84
2021/12/22 07:25:30;;;;;;;57.13;29.42;;;;;;;-5.50;100.00;99839.59;2146846;83;20981;-85
2021/12/22 07:28:30;;;;;;;58.78;29.80;;;;;;;-5.35;100.00;99836.14;2147414;83;21034;-89
2021/12/22 07:31:31;;;;;;;48.78;28.05;;;;;;;-5.12;100.00;99839.16;2146854;82;21022;-91
2021/12/22 07:34:32;;;;;;;55.05;27.55;;;;;;;-4.94;100.00;99841.92;2120459;83;21006;-92
2021/12/22 07:37:33;;;;;;;46.42;24.63;;;;;;;-4.80;100.00;99844.41;2143827;83;21023;-92
2021/12/22 07:40:34;;;;;;;44.42;22.98;;;;;;;-4.74;100.00;99842.92;2146067;83;21007;-91
2021/12/22 07:43:35;;;;;;;45.43;24.85;;;;;;;-4.68;100.00;99849.89;2142802;83;21005;-88
2021/12/22 07:46:35;;;;;;;51.77;26.57;;;;;;;-4.60;100.00;99853.01;2141864;82;20986;-89
2021/12/22 07:49:36;;;;;;;49.20;27.02;;;;;;;-4.52;100.00;99855.73;2142964;83;22185;-89
2021/12/22 07:52:37;;;;;;;57.08;27.52;;;;;;;-4.53;100.00;99851.52;2142471;83;21004;-85
2021/12/22 07:55:38;;;;;;;53.52;28.45;;;;;;;-4.47;100.00;99853.85;2143992;83;21002;-88
2021/12/22 07:58:39;;;;;;;49.95;29.18;;;;;;;-4.38;100.00;99863.73;2144272;83;21053;-87
2021/12/22 08:01:40;;;;;;;51.85;30.50;;;;;;;-4.30;100.00;99860.41;2143023;83;21022;-93
2021/12/22 08:04:40;;;;;;;55.12;30.40;;;;;;;-4.16;100.00;99867.12;2142419;82;21148;-90
2021/12/22 08:07:41;;;;;;;60.30;32.28;;;;;;;-4.09;100.00;99861.34;2142041;82;20981;-94
2021/12/22 08:10:42;;;;;;;61.20;32.05;;;;;;;-4.09;100.00;99861.34;2142409;83;21497;-93
2021/12/22 08:13:43;;;;;;;67.10;35.38;;;;;;;-4.05;100.00;99859.03;2142239;83;21052;-89
2021/12/22 08:16:44;;;;;;;64.67;34.00;;;;;;;-3.94;100.00;99854.32;2142926;83;21002;-88
2021/12/22 08:19:45;;;;;;;63.35;32.75;;;;;;;-3.84;100.00;99863.33;2142404;82;21074;-90
2021/12/22 08:22:46;;;;;;;66.90;33.45;;;;;;;-3.77;100.00;99862.16;2142574;83;21492;-88
2021/12/22 08:25:47;;;;;;;62.45;32.05;;;;;;;-3.66;100.00;99864.28;2117316;83;21017;-90
2021/12/22 08:28:49;;;;;;;57.27;32.28;;;;;;;-3.55;100.00;99867.72;2143196;83;21585;-84
2021/12/22 08:31:50;;;;;;;65.75;35.43;;;;;;;-3.46;100.00;99872.01;2142385;82;21128;-89
2021/12/22 08:34:55;;;;;;;58.13;31.80;;;;;;;-3.40;100.00;99867.52;2142808;83;21089;-89
2021/12/22 08:41:12;;;;;;;54.20;29.05;;;;;;;-3.12;100.00;99868.47;2146203;83;21109;-85
2021/12/22 08:44:13;;;;;;;51.13;29.37;;;;;;;-3.00;100.00;99871.35;2145881;82;21069;-88
2021/12/22 08:47:14;;;;;;;47.67;27.13;;;;;;;-2.82;100.00;99869.72;2146744;83;20994;-83
2021/12/22 08:50:15;;;;;;;40.45;22.80;;;;;;;-2.68;100.00;99875.52;2146121;82;21050;-87
2021/12/22 08:53:16;;;;;;;40.50;23.52;;;;;;;-2.59;100.00;99865.67;2146287;82;21038;-85
2021/12/22 08:56:17;;;;;;;46.10;24.85;;;;;;;-2.46;100.00;99871.11;2121363;83;21048;-87
2021/12/22 08:59:17;;;;;;;37.98;22.25;;;;;;;-2.31;100.00;99870.84;2146839;82;20946;-88
2021/12/22 09:02:18;;;;;;;40.55;22.20;;;;;;;-2.15;100.00;99876.11;2120875;83;21029;-86
2021/12/22 09:05:19;;;;;;;34.80;20.15;;;;;;;-2.06;100.00;99876.51;2146803;82;21069;-88
2021/12/22 09:08:20;;;;;;;35.15;20.82;;;;;;;-1.98;100.00;99872.75;2145900;83;21468;-87
2021/12/22 09:11:21;;;;;;;36.08;21.17;;;;;;;-1.81;100.00;99883.06;2145661;82;21472;-87
2021/12/22 09:14:22;;;;;;;35.88;21.68;;;;;;;-1.66;100.00;99887.44;2146262;83;21045;-86
2021/12/22 09:17:22;;;;;;;40.63;23.22;;;;;;;-1.59;100.00;99881.11;2146215;83;21081;-88
2021/12/22 09:20:25;;;;;;;35.45;20.97;;;;;;;-1.45;100.00;99880.45;2145555;83;21060;-84
2021/12/22 09:23:26;;;;;;;39.33;21.25;;;;;;;-1.40;100.00;99883.61;2146184;82;21017;-86
2021/12/22 09:26:27;;;;;;;51.65;25.70;;;;;;;-1.30;100.00;99882.70;2147918;83;21033;-87
2021/12/22 09:29:29;;;;;;;47.10;24.20;;;;;;;-1.37;100.00;99880.05;2147540;82;21017;-88
2021/12/22 09:32:30;;;;;;;38.35;21.55;;;;;;;-1.46;100.00;99886.50;2146618;83;21021;-87
2021/12/22 09:35:30;;;;;;;42.95;23.18;;;;;;;-1.55;100.00;99884.38;2146138;83;21048;-87
2021/12/22 09:38:31;;;;;;;39.05;22.65;;;;;;;-1.62;100.00;99880.44;2145786;83;21014;-90
2021/12/22 09:41:34;;;;;;;34.95;20.80;;;;;;;-1.56;100.00;99880.95;2146317;83;21001;-86
2021/12/22 09:44:42;;;;;;;39.80;20.23;;;;;;;-1.45;100.00;99886.87;2148020;83;21065;-87
2021/12/22 09:47:48;;;;;;;45.83;24.50;;;;;;;-1.44;100.00;99879.09;2146166;83;20996;-89
2021/12/22 09:50:53;;;;;;;44.63;23.73;;;;;;;-1.41;100.00;99878.09;2144645;83;20998;-89
2021/12/22 09:53:52;;;;;;;45.17;24.63;;;;;;;-1.38;100.00;99870.23;2145602;83;21125;-91
2021/12/22 09:56:53;;;;;;;45.40;24.10;;;;;;;-1.26;100.00;99876.52;2121356;83;21001;-89
2021/12/22 09:59:53;;;;;;;36.55;21.57;;;;;;;-1.15;100.00;99872.49;2147446;83;21026;-86
2021/12/22 10:02:54;;;;;;;35.70;20.02;;;;;;;-1.10;100.00;99864.98;2147980;83;20989;-89
2021/12/22 10:05:55;;;;;;;40.52;22.17;;;;;;;-1.15;100.00;99857.53;2147242;83;21555;-90
2021/12/22 10:08:57;;;;;;;31.00;19.20;;;;;;;-1.00;100.00;99864.92;2146767;82;20968;-87
2021/12/22 10:11:58;;;;;;;27.82;16.37;;;;;;;-0.86;100.00;99869.72;2145838;82;21001;-89
2021/12/22 10:14:58;;;;;;;25.23;15.32;;;;;;;-0.70;100.00;99856.06;2146313;82;21063;-88
2021/12/22 10:17:59;;;;;;;26.15;16.90;;;;;;;-0.64;100.00;99859.58;2147617;83;21528;-89
2021/12/22 10:21:00;;;;;;;21.48;12.93;;;;;;;-0.45;100.00;99855.61;2146857;83;21030;-88
2021/12/22 10:24:03;;;;;;;23.92;14.13;;;;;;;-0.29;100.00;99850.81;2146139;83;21062;-87
2021/12/22 10:27:04;;;;;;;25.20;13.38;;;;;;;-0.17;100.00;99851.08;2145742;83;21485;-89
2021/12/22 10:30:04;;;;;;;22.40;12.68;;;;;;;-0.10;100.00;99848.52;2145463;83;21040;-86
2021/12/22 10:33:05;;;;;;;20.23;12.18;;;;;;;-0.05;100.00;99851.22;2145234;82;21021;-87
2021/12/22 10:36:06;;;;;;;19.10;12.23;;;;;;;-0.08;100.00;99853.98;2143583;82;21038;-87
2021/12/22 10:39:07;;;;;;;22.42;13.10;;;;;;;-0.17;100.00;99852.37;2141908;83;21516;-94
2021/12/22 10:42:08;;;;;;;19.35;11.95;;;;;;;-0.18;100.00;99854.54;2141854;83;21505;-86
2021/12/22 10:45:08;;;;;;;21.17;11.93;;;;;;;-0.16;100.00;99847.59;2141814;83;20998;-86
2021/12/22 10:51:29;;;;;;;19.15;11.18;;;;;;;-0.11;100.00;99853.30;2142037;83;21565;-86
2021/12/22 10:54:29;;;;;;;22.80;12.30;;;;;;;0.03;100.00;99848.23;2141947;83;21057;-86
2021/12/22 10:57:30;;;;;;;23.55;12.75;;;;;;;0.09;100.00;99854.77;2141992;83;20985;-86
2021/12/22 11:00:31;;;;;;;26.75;14.38;;;;;;;0.12;100.00;99851.58;2141884;83;21491;-86
2021/12/22 11:03:33;;;;;;;22.37;12.70;;;;;;;0.13;100.00;99850.66;2141601;82;21641;-86
2021/12/22 11:06:34;;;;;;;17.02;10.20;;;;;;;0.13;100.00;99845.97;2142046;83;20952;-85
2021/12/22 11:09:36;;;;;;;21.75;11.38;;;;;;;0.12;100.00;99857.19;2142207;83;20979;-84
2021/12/22 11:12:37;;;;;;;26.57;12.55;;;;;;;0.04;100.00;99847.31;2142009;83;21056;-85
2021/12/22 11:15:38;;;;;;;18.35;11.22;;;;;;;-0.02;100.00;99844.61;2142825;83;20998;-86
2021/12/22 11:18:39;;;;;;;13.30;9.23;;;;;;;0.02;100.00;99841.42;2143105;83;21008;-84
2021/12/22 11:21:39;;;;;;;17.90;9.65;;;;;;;0.03;100.00;99845.66;2173073;82;20926;-91
2021/12/22 11:24:40;;;;;;;19.77;10.32;;;;;;;-0.04;100.00;99846.44;2173082;82;21020;-92
2021/12/22 11:40:32;;;;;;;13.78;8.68;;;;;;;0.82;100.00;99841.53;2225387;77;945087;-82
2021/12/22 11:43:33;;;;;;;10.78;7.17;;;;;;;0.71;100.00;99848.61;2194019;81;21068;-79
2021/12/22 11:46:35;;;;;;;15.23;10.08;;;;;;;0.61;100.00;99858.26;2192690;80;21049;-89
2021/12/22 11:49:37;;;;;;;17.42;10.50;;;;;;;0.49;100.00;99844.34;2193168;81;21091;-85
2021/12/22 11:52:38;;;;;;;18.50;8.98;;;;;;;0.44;100.00;99845.88;2190990;81;21091;-86
2021/12/22 11:55:39;;;;;;;17.27;9.68;;;;;;;0.27;100.00;99843.43;2189426;81;21028;-85
2021/12/22 11:58:40;;;;;;;15.72;9.70;;;;;;;0.21;100.00;99844.62;2194230;81;21108;-84
2021/12/22 12:01:41;;;;;;;16.55;10.68;;;;;;;0.18;100.00;99840.08;2192510;81;21069;-89
2021/12/22 12:04:41;;;;;;;18.02;9.98;;;;;;;0.18;100.00;99837.08;2195208;80;21506;-85
2021/12/22 12:07:42;;;;;;;15.30;9.73;;;;;;;0.05;100.00;99832.69;2196755;80;20989;-82
2021/12/22 12:10:43;;;;;;;18.40;11.03;;;;;;;-0.02;100.00;99834.77;2195150;80;21056;-91
2021/12/22 12:13:54;;;;;;;14.83;8.70;;;;;;;-0.13;100.00;99832.79;2192974;80;21120;-82
2021/12/22 12:23:18;;;;;;;19.55;10.93;;;;;;;-0.18;100.00;99835.23;2195231;81;21595;-86
2021/12/22 12:26:19;;;;;;;20.25;10.88;;;;;;;-0.15;100.00;99820.47;2195611;81;21023;-89
2021/12/22 12:29:19;;;;;;;24.45;14.03;;;;;;;-0.16;100.00;99820.55;2194173;81;21115;-88
2021/12/22 12:32:20;;;;;;;22.10;12.65;;;;;;;-0.24;100.00;99817.11;2194475;81;21460;-88
2021/12/22 12:35:23;;;;;;;22.27;12.90;;;;;;;-0.24;100.00;99820.97;2193263;81;20989;-87
2021/12/22 12:38:25;;;;;;;21.50;11.83;;;;;;;-0.19;100.00;99818.13;2194111;81;20988;-84
2021/12/22 12:44:44;;;;;;;16.62;10.13;;;;;;;-0.19;100.00;99816.38;2010382;87;21192;-87
2021/12/22 12:47:44;;;;;;;17.85;11.65;;;;;;;-0.22;100.00;99816.56;2010874;86;21029;-84
2021/12/22 12:50:45;;;;;;;27.20;13.80;;;;;;;-0.23;100.00;99816.20;2006902;86;21450;-82
2021/12/22 12:57:40;;;;;;;14.00;10.68;;;;;;;-0.27;100.00;99815.14;2003443;87;21691;-86
2021/12/22 13:04:22;;;;;;;;;;;;;;;;;;;;;
2021/12/22 13:07:25;;;;;;;17.67;10.55;;;;;;;-0.27;100.00;99821.58;1907130;90;21113;-83
2021/12/22 13:10:30;;;;;;;15.72;10.10;;;;;;;-0.34;100.00;99821.94;1907473;91;21578;-84
2021/12/22 13:13:50;;;;;;;15.90;9.45;;;;;;;-0.35;100.00;99820.28;1918592;91;21182;-82
2021/12/22 13:16:31;;;;;;;15.30;8.45;;;;;;;-0.33;100.00;99818.45;1973055;88;21689;-82
2021/12/22 13:19:32;;;;;;;14.70;8.40;;;;;;;-0.36;100.00;99825.52;2023625;87;21104;-85
2021/12/22 13:22:32;;;;;;;13.03;7.28;;;;;;;-0.42;100.00;99829.23;2015011;87;21075;-80
2021/12/22 13:25:33;;;;;;;13.03;7.55;;;;;;;-0.47;100.00;99830.39;2021363;86;21044;-82
2021/12/22 13:28:35;;;;;;;10.68;6.65;;;;;;;-0.52;100.00;99828.08;2014999;87;21140;-86
2021/12/22 13:31:36;;;;;;;10.75;6.42;;;;;;;-0.59;100.00;99822.42;2021610;87;21142;-85
2021/12/22 13:34:37;;;;;;;11.45;7.40;;;;;;;-0.62;100.00;99828.20;2031566;86;21168;-95
2021/12/22 13:37:37;;;;;;;12.53;6.80;;;;;;;-0.69;100.00;99825.57;2046327;85;21521;-93
2021/12/22 13:40:38;;;;;;;11.95;7.50;;;;;;;-0.74;100.00;99839.12;2143268;81;21092;-91
2021/12/22 13:43:39;;;;;;;15.05;7.83;;;;;;;-0.81;100.00;99836.52;2160020;80;21573;-85
2021/12/22 13:46:40;;;;;;;16.15;7.72;;;;;;;-0.90;100.00;99843.80;2148703;81;21091;-91
2021/12/22 13:49:41;;;;;;;13.30;8.33;;;;;;;-0.96;100.00;99843.28;2152746;80;21109;-89
2021/12/22 13:52:42;;;;;;;13.78;8.05;;;;;;;-1.01;100.00;99847.81;2160799;82;21092;-83
2021/12/22 13:55:42;;;;;;;13.85;8.78;;;;;;;-1.07;100.00;99844.29;2164846;82;21010;-87
2021/12/22 13:58:43;;;;;;;13.20;8.65;;;;;;;-1.17;100.00;99852.47;2157485;82;21014;-92
2021/12/22 14:01:44;;;;;;;16.77;10.95;;;;;;;-1.23;100.00;99848.91;2156911;82;21107;-92
2021/12/22 14:04:45;;;;;;;17.20;9.20;;;;;;;-1.30;100.00;99851.86;2165046;81;21057;-84
2021/12/22 14:07:46;;;;;;;23.22;10.63;;;;;;;-1.37;100.00;99851.36;2153504;81;21081;-83
2021/12/22 17:31:54;;;;;;;167.60;92.22;;;;;;;-4.76;100.00;99837.84;2237741;79;22852;-83
2021/12/22 17:34:54;;;;;;;143.65;64.32;;;;;;;-4.81;100.00;99842.75;2187992;81;21587;-84
2021/12/22 17:37:55;;;;;;;170.53;61.50;;;;;;;-4.75;100.00;99836.15;2188193;81;21037;-87
2021/12/22 17:40:58;;;;;;;190.47;65.65;;;;;;;-4.70;100.00;99840.19;2188277;81;21049;-89
2021/12/22 17:44:00;;;;;;;511.40;177.60;;;;;;;-4.60;100.00;99840.23;2188096;81;21037;-81
2021/12/22 17:47:01;;;;;;;446.07;158.05;;;;;;;-4.45;100.00;99831.61;2188431;81;21073;-84
2021/12/22 17:50:02;;;;;;;351.50;133.90;;;;;;;-4.32;100.00;99837.46;2188302;81;21609;-79
2021/12/22 17:53:03;;;;;;;329.07;123.70;;;;;;;-4.14;100.00;99834.64;2188095;81;20961;-77